ブリスベン の空港の天気 - METARとTAF

ブリスベン空港 ( YBBN / BNE ) - オーストラリア クイーンズランド州ブリスベン
飛行場実況気象(Metar)
観測時間10/16 03:00 AEST (10/15 17:00 UTC)
風向・風速北北西 2m/s
視程10km以上
天気現象
なし
気温19℃
湿度94%
気圧1014hPa
METARYBBN 151700Z 33004KT CAVOK 19/18 Q1014
過去の天気等 Google飛行場航空写真 Wunderground天気予報

過去48時間のMETAR

飛行場予報(TAF)
発表時間: 10/16 01:05 AEST (10/15 15:05 UTC)
予報対象時間: 16日1時 AEST ~ 17日4時 AEST
風向・風速北 5m/s
視程10km以上
全天の4割程度の雲 雲底高度 460m
16日7時 AEST から
風向・風速北 7m/s
視程10km以上
全天の4割程度の雲 雲底高度 760m
16日12時 AEST から
風向・風速北北東 9m/s
視程10km以上
少しの雲 雲底高度 1070m
16日4時 AEST ~ 16日7時 AEST に一時的に
視程10km以上
全天の8割程度の雲 雲底高度 460m
TAF AMD YBBN 151505Z 1515/1618 36010KT 9999 SCT015
FM152100 36014KT 9999 SCT025
FM160200 02018KT 9999 FEW035
TEMPO 1518/1521 9999 BKN015